Dades meteomassalio
Diari Summary for Gener 18, 2017 Units:  English    Metric   Both
« Previous Day
Next Day »
Diari Semanal Mensual Anual Personalitzat
  Maxima: Minima: Mijana:
Temperatura: TemperatureC °F -3.3 °F -0.3 °F
Rosada: DewpointC °F -11.4 °F -8.1 °F
Humitat: Humidity % 41 % 57 %
Velocitat del vent: WindSpeedKMH mph 0.0 mph 15.1 mph
Racha vent: WindSpeedGustKMH mph - -
Vent:- - West
Pressio: PressurehPa in 1022.2 in -
Pluja: 0.0 in    
Historical Graphs
 
 
Tabular Data for Gener 18, 2017
Time Temperature Dew Point Pressure Wind Wind Speed Wind Gust Humidity Rainfall Rate (Hourly) solar Conditions
TemperatureC °F DewpointC °F PressurehPa in Calm     Humidity % HourlyPrecipMM in SolarRadiationWatts/m^2 W/m2 Conditions
00:02 -0.2 °F -7.7 °F 1022.2 in West 20.4 mph 20.4 mph 57 % 0.0 in 0.0 W/m2 CLR
00:07 -0.2 °F -7.7 °F 1022.2 in West 27.8 mph 27.8 mph 57 % 0.0 in 0.0 W/m2 CLR
00:12 -0.2 °F -7.7 °F 1022.2 in West 22.2 mph 22.2 mph 57 % 0.0 in 0.0 W/m2 CLR
00:17 -0.2 °F -7.9 °F 1022.2 in West 18.5 mph 18.5 mph 56 % 0.0 in 0.0 W/m2 CLR
00:22 -0.2 °F -7.9 °F 1022.2 in West 24.1 mph 24.1 mph 56 % 0.0 in 0.0 W/m2 CLR
00:27 -0.3 °F -8.0 °F 1022.2 in West 27.8 mph 27.8 mph 56 % 0.0 in 0.0 W/m2 CLR
00:32 -0.2 °F -7.9 °F 1022.2 in West 25.9 mph 25.9 mph 56 % 0.0 in 0.0 W/m2 CLR
00:37 -0.3 °F -8.0 °F 1022.2 in West 24.1 mph 24.1 mph 56 % 0.0 in 0.0 W/m2 CLR
00:42 -0.3 °F -8.1 °F 1022.2 in West 18.5 mph 18.5 mph 56 % 0.0 in 0.0 W/m2 CLR
00:47 -0.4 °F -8.1 °F 1022.2 in West 25.7 mph 25.7 mph 56 % 0.0 in 0.0 W/m2 CLR
00:52 -0.4 °F -7.9 °F 1022.6 in West 24.1 mph 24.1 mph 57 % 0.0 in 0.0 W/m2 CLR
00:57 -0.5 °F -8.0 °F 1022.6 in West 22.2 mph 22.2 mph 57 % 0.0 in 0.0 W/m2 CLR
01:02 -0.6 °F -8.1 °F 1022.6 in West 20.4 mph 20.4 mph 57 % 0.0 in 0.0 W/m2 CLR
01:07 -0.6 °F -8.1 °F 1022.6 in West 18.5 mph 18.5 mph 57 % 0.0 in 0.0 W/m2 CLR
01:12 -0.7 °F -8.2 °F 1022.2 in West 18.5 mph 18.5 mph 57 % 0.0 in 0.0 W/m2 CLR
01:17 -0.7 °F -8.2 °F 1022.2 in West 16.7 mph 16.7 mph 57 % 0.0 in 0.0 W/m2 CLR
01:22 -0.8 °F -8.3 °F 1022.2 in West 18.5 mph 18.5 mph 57 % 0.0 in 0.0 W/m2 CLR
01:27 -0.8 °F -8.1 °F 1022.2 in West 13.0 mph 13.0 mph 58 % 0.0 in 0.0 W/m2 CLR
01:32 -0.9 °F -8.1 °F 1022.2 in West 24.1 mph 24.1 mph 58 % 0.0 in 0.0 W/m2 CLR
01:37 -0.9 °F -8.1 °F 1022.2 in West 25.9 mph 25.9 mph 58 % 0.0 in 0.0 W/m2 CLR
01:42 -0.9 °F -8.2 °F 1022.2 in West 17.7 mph 17.7 mph 58 % 0.0 in 0.0 W/m2 CLR
01:47 -1.0 °F -8.2 °F 1022.2 in West 18.5 mph 18.5 mph 58 % 0.0 in 0.0 W/m2 CLR
01:52 -1.0 °F -8.2 °F 1022.2 in West 20.4 mph 20.4 mph 58 % 0.0 in 0.0 W/m2 CLR
01:57 -1.0 °F -8.2 °F 1022.2 in West 22.5 mph 22.5 mph 58 % 0.0 in 0.0 W/m2 CLR
02:02 -1.1 °F -8.1 °F 1022.6 in West 20.4 mph 20.4 mph 59 % 0.0 in 0.0 W/m2 CLR
02:07 -1.1 °F -8.3 °F 1022.6 in WNW 29.6 mph 29.6 mph 58 % 0.0 in 0.0 W/m2 CLR
02:12 -1.1 °F -8.3 °F 1022.6 in WNW 25.9 mph 25.9 mph 58 % 0.0 in 0.0 W/m2 CLR
02:17 -1.1 °F -8.3 °F 1022.6 in West 25.9 mph 25.9 mph 58 % 0.0 in 0.0 W/m2 CLR
02:22 -1.1 °F -8.3 °F 1022.6 in West 22.5 mph 22.5 mph 58 % 0.0 in 0.0 W/m2 CLR
02:27 -1.1 °F -8.3 °F 1022.6 in West 19.3 mph 19.3 mph 58 % 0.0 in 0.0 W/m2 CLR
02:32 -1.1 °F -8.6 °F 1022.9 in West 24.1 mph 24.1 mph 57 % 0.0 in 0.0 W/m2 CLR
02:37 -1.1 °F -8.6 °F 1022.9 in West 25.9 mph 25.9 mph 57 % 0.0 in 0.0 W/m2 CLR
02:42 -1.2 °F -8.6 °F 1022.9 in West 24.1 mph 24.1 mph 57 % 0.0 in 0.0 W/m2 CLR
02:47 -1.2 °F -8.6 °F 1022.9 in West 18.5 mph 18.5 mph 57 % 0.0 in 0.0 W/m2 CLR
02:52 -1.2 °F -8.7 °F 1022.9 in West 27.8 mph 27.8 mph 57 % 0.0 in 0.0 W/m2 CLR
02:57 -1.3 °F -8.7 °F 1023.2 in WNW 20.4 mph 20.4 mph 57 % 0.0 in 0.0 W/m2 CLR
03:02 -1.3 °F -8.8 °F 1023.2 in West 18.5 mph 18.5 mph 57 % 0.0 in 0.0 W/m2 CLR
03:07 -1.4 °F -8.8 °F 1023.2 in West 16.7 mph 16.7 mph 57 % 0.0 in 0.0 W/m2 CLR
03:12 -1.3 °F -8.7 °F 1023.2 in West 20.4 mph 20.4 mph 57 % 0.0 in 0.0 W/m2 CLR
03:17 -1.3 °F -8.8 °F 1023.2 in West 20.9 mph 20.9 mph 57 % 0.0 in 0.0 W/m2 CLR
03:22 -1.3 °F -9.0 °F 1023.2 in West 18.5 mph 18.5 mph 56 % 0.0 in 0.0 W/m2 CLR
03:27 -1.4 °F -8.8 °F 1023.2 in West 18.5 mph 18.5 mph 57 % 0.0 in 0.0 W/m2 CLR
03:32 -1.4 °F -8.9 °F 1023.6 in West 20.9 mph 20.9 mph 57 % 0.0 in 0.0 W/m2 CLR
03:37 -1.5 °F -8.9 °F 1023.6 in West 18.5 mph 18.5 mph 57 % 0.0 in 0.0 W/m2 CLR
03:42 -1.6 °F -9.0 °F 1023.6 in West 14.8 mph 14.8 mph 57 % 0.0 in 0.0 W/m2 CLR
03:47 -1.6 °F -9.1 °F 1023.6 in West 14.8 mph 14.8 mph 57 % 0.0 in 0.0 W/m2 CLR
03:52 -1.7 °F -9.1 °F 1023.9 in West 16.7 mph 16.7 mph 57 % 0.0 in 0.0 W/m2 CLR
03:57 -1.7 °F -9.1 °F 1023.9 in West 16.1 mph 16.1 mph 57 % 0.0 in 0.0 W/m2 CLR
04:03 -1.7 °F -9.1 °F 1023.9 in West 18.5 mph 18.5 mph 57 % 0.0 in 0.0 W/m2 CLR
04:08 -1.8 °F -9.2 °F 1023.9 in West 9.7 mph 9.7 mph 57 % 0.0 in 0.0 W/m2 CLR
04:13 -1.8 °F -9.2 °F 1023.9 in West 14.8 mph 14.8 mph 57 % 0.0 in 0.0 W/m2 CLR
04:18 -1.8 °F -9.0 °F 1023.9 in West 11.3 mph 11.3 mph 58 % 0.0 in 0.0 W/m2 CLR
04:23 -1.9 °F -9.1 °F 1023.9 in West 14.8 mph 14.8 mph 58 % 0.0 in 0.0 W/m2 CLR
04:28 -1.8 °F -9.2 °F 1023.9 in West 20.4 mph 20.4 mph 57 % 0.0 in 0.0 W/m2 CLR
04:33 -1.9 °F -9.3 °F 1023.9 in West 18.5 mph 18.5 mph 57 % 0.0 in 0.0 W/m2 CLR
04:38 -1.9 °F -9.3 °F 1023.9 in West 14.8 mph 14.8 mph 57 % 0.0 in 0.0 W/m2 CLR
04:43 -1.9 °F -9.3 °F 1023.9 in West 18.5 mph 18.5 mph 57 % 0.0 in 0.0 W/m2 CLR
04:48 -2.0 °F -9.2 °F 1023.9 in WSW 8.0 mph 8.0 mph 58 % 0.0 in 0.0 W/m2 CLR
04:53 -2.2 °F -9.4 °F 1023.9 in WSW 11.1 mph 11.1 mph 58 % 0.0 in 0.0 W/m2 CLR
04:58 -2.3 °F -9.3 °F 1023.9 in WSW 9.3 mph 9.3 mph 59 % 0.0 in 0.0 W/m2 CLR
05:03 -2.4 °F -9.3 °F 1023.9 in WSW 14.8 mph 14.8 mph 59 % 0.0 in 0.0 W/m2 CLR
05:08 -2.4 °F -9.4 °F 1023.9 in WSW 11.3 mph 11.3 mph 59 % 0.0 in 0.0 W/m2 CLR
05:13 -2.5 °F -9.4 °F 1023.9 in WSW 11.1 mph 11.1 mph 59 % 0.0 in 0.0 W/m2 CLR
05:18 -2.6 °F -9.3 °F 1023.9 in WSW 9.3 mph 9.3 mph 60 % 0.0 in 0.0 W/m2 CLR
05:23 -2.6 °F -9.3 °F 1023.9 in WSW 9.3 mph 9.3 mph 60 % 0.0 in 0.0 W/m2 CLR
05:28 -2.6 °F -9.3 °F 1023.9 in WSW 11.1 mph 11.1 mph 60 % 0.0 in 0.0 W/m2 CLR
05:29 -2.6 °F -9.3 °F 1023.9 in WSW 13.0 mph 13.0 mph 60 % 0.0 in 0.0 W/m2 CLR
05:34 -2.6 °F -9.3 °F 1023.9 in WSW 13.0 mph 13.0 mph 60 % 0.0 in 0.0 W/m2 CLR
05:39 -2.6 °F -9.3 °F 1024.3 in WSW 11.1 mph 11.1 mph 60 % 0.0 in 0.0 W/m2 CLR
05:40 -2.7 °F -9.4 °F 1023.9 in WSW 11.3 mph 11.3 mph 60 % 0.0 in 0.0 W/m2 CLR
05:45 -2.7 °F -9.4 °F 1024.3 in WSW 13.0 mph 13.0 mph 60 % 0.0 in 0.0 W/m2 CLR
05:50 -2.7 °F -9.4 °F 1023.9 in WSW 18.5 mph 18.5 mph 60 % 0.0 in 0.0 W/m2 CLR
05:55 -2.7 °F -9.4 °F 1023.9 in WSW 16.7 mph 16.7 mph 60 % 0.0 in 0.0 W/m2 CLR
06:00 -2.7 °F -9.6 °F 1024.3 in WSW 14.8 mph 14.8 mph 59 % 0.0 in 0.0 W/m2 CLR
06:05 -2.7 °F -9.6 °F 1024.3 in WSW 14.8 mph 14.8 mph 59 % 0.0 in 0.0 W/m2 CLR
06:11 -2.7 °F -9.6 °F 1024.3 in WSW 16.7 mph 16.7 mph 59 % 0.0 in 0.0 W/m2 CLR
06:16 -2.7 °F -9.6 °F 1023.9 in WSW 14.8 mph 14.8 mph 59 % 0.0 in 0.0 W/m2 CLR
06:21 -2.7 °F -9.8 °F 1024.3 in WSW 16.7 mph 16.7 mph 58 % 0.0 in 0.0 W/m2 CLR
06:26 -2.6 °F -9.7 °F 1024.3 in WSW 16.7 mph 16.7 mph 58 % 0.0 in 0.0 W/m2 CLR
06:31 -2.7 °F -9.8 °F 1024.3 in WSW 14.8 mph 14.8 mph 58 % 0.0 in 0.0 W/m2 CLR
06:36 -2.7 °F -9.8 °F 1024.3 in WSW 16.7 mph 16.7 mph 58 % 0.0 in 0.0 W/m2 CLR
06:41 -2.7 °F -9.8 °F 1024.3 in WSW 14.8 mph 14.8 mph 58 % 0.0 in 0.0 W/m2 CLR
06:46 -2.7 °F -9.8 °F 1024.3 in WSW 14.8 mph 14.8 mph 58 % 0.0 in 0.0 W/m2 CLR
06:51 -2.8 °F -9.9 °F 1024.3 in WSW 16.7 mph 16.7 mph 58 % 0.0 in 0.0 W/m2 CLR
06:56 -2.8 °F -9.9 °F 1024.3 in WSW 16.7 mph 16.7 mph 58 % 0.0 in 0.0 W/m2 CLR
07:01 -2.8 °F -9.9 °F 1024.3 in WSW 14.8 mph 14.8 mph 58 % 0.0 in 0.0 W/m2 CLR
07:06 -2.9 °F -10.0 °F 1024.6 in WSW 13.0 mph 13.0 mph 58 % 0.0 in 0.0 W/m2 CLR
07:11 -2.8 °F -9.9 °F 1024.6 in WSW 13.0 mph 13.0 mph 58 % 0.0 in 0.0 W/m2 CLR
07:16 -2.9 °F -10.0 °F 1024.6 in WSW 14.8 mph 14.8 mph 58 % 0.0 in 0.0 W/m2 CLR
07:21 -2.9 °F -10.0 °F 1024.6 in WSW 13.0 mph 13.0 mph 58 % 0.0 in 0.0 W/m2 CLR
07:26 -2.9 °F -10.3 °F 1024.6 in WSW 11.3 mph 11.3 mph 57 % 0.0 in 0.0 W/m2 CLR
07:31 -2.9 °F -10.2 °F 1024.6 in WSW 11.1 mph 11.1 mph 57 % 0.0 in 0.0 W/m2 CLR
07:36 -2.9 °F -10.3 °F 1024.6 in WSW 11.1 mph 11.1 mph 57 % 0.0 in 0.0 W/m2 CLR
07:41 -3.0 °F -10.3 °F 1024.6 in WSW 13.0 mph 13.0 mph 57 % 0.0 in 0.0 W/m2 CLR
07:46 -2.9 °F -10.3 °F 1024.9 in WSW 12.9 mph 12.9 mph 57 % 0.0 in 0.0 W/m2 CLR
07:51 -3.0 °F -10.3 °F 1024.9 in WSW 9.3 mph 9.3 mph 57 % 0.0 in 0.0 W/m2 CLR
07:56 -3.1 °F -10.4 °F 1024.9 in WSW 11.1 mph 11.1 mph 57 % 0.0 in 0.0 W/m2 CLR
08:01 -3.1 °F -10.4 °F 1024.9 in WSW 9.7 mph 9.7 mph 57 % 0.0 in 0.0 W/m2 CLR
08:06 -3.2 °F -10.5 °F 1024.9 in WSW 9.7 mph 9.7 mph 57 % 0.0 in 0.0 W/m2 CLR
08:11 -3.2 °F -10.6 °F 1025.3 in WSW 11.3 mph 11.3 mph 57 % 0.0 in 0.0 W/m2 CLR
08:16 -3.3 °F -10.6 °F 1025.3 in SW 9.7 mph 9.7 mph 57 % 0.0 in 0.0 W/m2 CLR
08:21 -3.3 °F -10.6 °F 1025.3 in SW 11.1 mph 11.1 mph 57 % 0.0 in 0.0 W/m2 OVC
08:26 -3.2 °F -10.6 °F 1025.3 in WSW 13.0 mph 13.0 mph 57 % 0.0 in 5.0 W/m2 BKN
08:31 -3.2 °F -10.7 °F 1025.3 in WSW 9.3 mph 9.3 mph 56 % 0.0 in 7.0 W/m2 BKN
08:36 -3.1 °F -10.7 °F 1025.3 in WSW 14.8 mph 14.8 mph 56 % 0.0 in 9.0 W/m2 BKN
08:41 -3.0 °F -10.8 °F 1025.3 in WSW 13.0 mph 13.0 mph 55 % 0.0 in 12.0 W/m2 BKN
08:46 -2.9 °F -10.7 °F 1025.3 in WSW 13.0 mph 13.0 mph 55 % 0.0 in 16.0 W/m2 BKN
08:51 -2.8 °F -10.8 °F 1025.3 in WSW 13.0 mph 13.0 mph 54 % 0.0 in 18.0 W/m2 BKN
08:56 -2.7 °F -10.8 °F 1025.3 in WSW 13.0 mph 13.0 mph 54 % 0.0 in 21.0 W/m2 BKN
09:01 -2.6 °F -10.7 °F 1025.3 in WSW 11.1 mph 11.1 mph 54 % 0.0 in 35.0 W/m2 BKN
09:06 -2.4 °F -10.5 °F 1025.3 in WSW 11.1 mph 11.1 mph 54 % 0.0 in 47.0 W/m2 BKN
09:11 -2.3 °F -10.4 °F 1025.3 in WSW 11.1 mph 11.1 mph 54 % 0.0 in 53.0 W/m2 BKN
09:16 -2.2 °F -10.5 °F 1025.3 in WSW 13.0 mph 13.0 mph 53 % 0.0 in 72.0 W/m2 BKN
09:21 -1.9 °F -10.5 °F 1025.3 in WSW 11.1 mph 11.1 mph 52 % 0.0 in 88.0 W/m2 BKN
09:26 -1.7 °F -10.5 °F 1025.3 in WSW 14.8 mph 14.8 mph 51 % 0.0 in 98.0 W/m2 BKN
09:31 -1.4 °F -10.5 °F 1025.3 in WSW 13.0 mph 13.0 mph 50 % 0.0 in 113.0 W/m2 BKN
09:36 -1.1 °F -10.7 °F 1025.3 in West 14.8 mph 14.8 mph 48 % 0.0 in 125.0 W/m2 BKN
09:42 -0.9 °F -10.8 °F 1025.3 in West 13.0 mph 13.0 mph 47 % 0.0 in 141.0 W/m2 BKN
09:47 -0.7 °F -10.9 °F 1025.3 in West 16.1 mph 16.1 mph 46 % 0.0 in 155.0 W/m2 BKN
09:52 -0.6 °F -10.8 °F 1025.6 in West 14.8 mph 14.8 mph 46 % 0.0 in 169.0 W/m2 SCT
09:57 -0.5 °F -11.0 °F 1025.6 in West 14.8 mph 14.8 mph 45 % 0.0 in 181.0 W/m2 SCT
10:02 -0.4 °F -10.9 °F 1025.6 in West 14.8 mph 14.8 mph 45 % 0.0 in 174.0 W/m2 BKN
10:07 -0.3 °F -11.1 °F 1025.6 in West 22.2 mph 22.2 mph 44 % 0.0 in 213.0 W/m2 SCT
10:12 -0.3 °F -11.1 °F 1025.6 in West 24.1 mph 24.1 mph 44 % 0.0 in 216.0 W/m2 SCT
10:17 -0.2 °F -11.0 °F 1025.6 in WNW 18.5 mph 18.5 mph 44 % 0.0 in 244.0 W/m2 SCT
10:22 -0.1 °F -10.9 °F 1025.3 in WNW 22.2 mph 22.2 mph 44 % 0.0 in 257.0 W/m2 SCT
10:27 0.0 °F -10.6 °F 1025.3 in WNW 25.9 mph 25.9 mph 45 % 0.0 in 272.0 W/m2 SCT
10:32 0.1 °F -11.1 °F 1025.3 in WNW 20.4 mph 20.4 mph 43 % 0.0 in 283.0 W/m2 SCT
10:37 0.3 °F -10.8 °F 1025.3 in West 18.5 mph 18.5 mph 43 % 0.0 in 294.0 W/m2 SCT
10:42 0.3 °F -11.4 °F 1025.3 in West 24.1 mph 24.1 mph 41 % 0.0 in 304.0 W/m2 SCT
10:47 0.4 °F -11.1 °F 1025.3 in West 27.8 mph 27.8 mph 42 % 0.0 in 316.0 W/m2 FEW
10:52 0.4 °F -11.1 °F 1025.3 in West 24.1 mph 24.1 mph 42 % 0.0 in 325.0 W/m2 FEW
10:57 0.6 °F -10.6 °F 1025.6 in West 20.9 mph 20.9 mph 43 % 0.0 in 334.0 W/m2 FEW
11:02 0.6 °F -10.6 °F 1025.6 in WNW 24.1 mph 24.1 mph 43 % 0.0 in 345.0 W/m2 FEW
11:07 0.8 °F -10.4 °F 1025.6 in WNW 22.2 mph 22.2 mph 43 % 0.0 in 353.0 W/m2 FEW
11:12 1.0 °F -10.5 °F 1025.6 in West 20.9 mph 20.9 mph 42 % 0.0 in 364.0 W/m2 FEW
11:17 1.1 °F -10.4 °F 1025.6 in WNW 20.4 mph 20.4 mph 42 % 0.0 in 371.0 W/m2 FEW
11:22 1.2 °F -10.3 °F 1025.6 in NW 18.5 mph 18.5 mph 42 % 0.0 in 380.0 W/m2 FEW
11:27 1.2 °F -10.7 °F 1025.6 in WNW 27.8 mph 27.8 mph 41 % 0.0 in 388.0 W/m2 FEW
11:32 1.2 °F -10.3 °F 1025.6 in WNW 17.7 mph 17.7 mph 42 % 0.0 in 397.0 W/m2 FEW
11:37 1.4 °F -10.4 °F 1025.6 in WNW 24.1 mph 24.1 mph 41 % 0.0 in 404.0 W/m2 FEW
11:42 1.4 °F -10.4 °F 1025.6 in WNW 29.6 mph 29.6 mph 41 % 0.0 in 411.0 W/m2 FEW
11:47 1.4 °F -10.2 °F 1025.3 in West 24.1 mph 24.1 mph 42 % 0.0 in 417.0 W/m2 FEW
11:52 1.6 °F -9.9 °F 1025.3 in West 29.0 mph 29.0 mph 42 % 0.0 in 424.0 W/m2 FEW
11:57 1.6 °F -10.0 °F 1025.3 in WNW 29.6 mph 29.6 mph 42 % 0.0 in 429.0 W/m2 CLR
12:02 1.6 °F -10.0 °F 1025.3 in WNW 31.5 mph 31.5 mph 42 % 0.0 in 436.0 W/m2 CLR
12:07 1.6 °F -9.9 °F 1025.3 in NW 22.2 mph 22.2 mph 42 % 0.0 in 439.0 W/m2 CLR
12:12 1.7 °F -9.8 °F 1024.9 in WNW 27.8 mph 27.8 mph 42 % 0.0 in 445.0 W/m2 CLR
12:17 1.9 °F -9.7 °F 1024.9 in WNW 25.7 mph 25.7 mph 42 % 0.0 in 450.0 W/m2 CLR
12:22 1.9 °F -9.7 °F 1024.9 in WNW 24.1 mph 24.1 mph 42 % 0.0 in 452.0 W/m2 CLR
12:27 1.8 °F -9.4 °F 1024.9 in West 31.5 mph 31.5 mph 43 % 0.0 in 455.0 W/m2 CLR
12:32 1.8 °F -9.4 °F 1024.9 in West 29.6 mph 29.6 mph 43 % 0.0 in 459.0 W/m2 CLR
12:37 2.1 °F -8.9 °F 1024.9 in WNW 25.9 mph 25.9 mph 44 % 0.0 in 461.0 W/m2 CLR
12:42 2.0 °F -9.0 °F 1024.9 in WNW 27.8 mph 27.8 mph 44 % 0.0 in 462.0 W/m2 CLR
12:47 1.8 °F -9.2 °F 1024.9 in WNW 18.5 mph 18.5 mph 44 % 0.0 in 464.0 W/m2 CLR
12:52 2.3 °F -8.4 °F 1024.9 in WNW 18.5 mph 18.5 mph 45 % 0.0 in 466.0 W/m2 CLR
12:57 2.6 °F -8.2 °F 1024.9 in NW 27.8 mph 27.8 mph 45 % 0.0 in 468.0 W/m2 CLR
13:02 2.5 °F -8.6 °F 1024.9 in NW 31.5 mph 31.5 mph 44 % 0.0 in 469.0 W/m2 CLR
13:07 2.5 °F -8.3 °F 1024.9 in NW 24.1 mph 24.1 mph 45 % 0.0 in 469.0 W/m2 CLR
13:12 2.4 °F -8.1 °F 1024.9 in NW 24.1 mph 24.1 mph 46 % 0.0 in 471.0 W/m2 CLR
13:17 2.3 °F -8.2 °F 1024.9 in NW 24.1 mph 24.1 mph 46 % 0.0 in 450.0 W/m2 CLR
13:22 2.4 °F -7.7 °F 1024.6 in NW 18.5 mph 18.5 mph 47 % 0.0 in 471.0 W/m2 CLR
13:27 2.6 °F -7.9 °F 1024.6 in NW 24.1 mph 24.1 mph 46 % 0.0 in 480.0 W/m2 CLR
13:32 2.6 °F -7.9 °F 1024.6 in NW 24.1 mph 24.1 mph 46 % 0.0 in 489.0 W/m2 CLR
13:37 2.7 °F -7.5 °F 1024.6 in NW 27.8 mph 27.8 mph 47 % 0.0 in 501.0 W/m2 CLR
13:42 2.8 °F -7.4 °F 1024.6 in WNW 20.4 mph 20.4 mph 47 % 0.0 in 436.0 W/m2 CLR
13:47 2.7 °F -7.6 °F 1024.6 in WNW 18.5 mph 18.5 mph 47 % 0.0 in 424.0 W/m2 CLR
13:52 2.7 °F -7.2 °F 1024.3 in WNW 16.7 mph 16.7 mph 48 % 0.0 in 448.0 W/m2 CLR
13:57 2.8 °F -7.1 °F 1024.3 in WNW 19.3 mph 19.3 mph 48 % 0.0 in 427.0 W/m2 CLR
14:02 2.9 °F -7.0 °F 1024.3 in NW 25.9 mph 25.9 mph 48 % 0.0 in 411.0 W/m2 CLR
14:07 2.9 °F -7.0 °F 1024.3 in NW 20.4 mph 20.4 mph 48 % 0.0 in 343.0 W/m2 CLR
14:12 3.0 °F -6.9 °F 1024.3 in NW 27.8 mph 27.8 mph 48 % 0.0 in 422.0 W/m2 CLR
14:17 2.7 °F -6.9 °F 1024.3 in NW 18.5 mph 18.5 mph 49 % 0.0 in 454.0 W/m2 FEW
14:22 3.0 °F -6.7 °F 1024.3 in NW 24.1 mph 24.1 mph 49 % 0.0 in 404.0 W/m2 FEW
14:27 3.1 °F -6.8 °F 1024.3 in NW 24.1 mph 24.1 mph 48 % 0.0 in 388.0 W/m2 CLR
14:32 3.1 °F -6.8 °F 1024.3 in NW 18.5 mph 18.5 mph 48 % 0.0 in 403.0 W/m2 FEW
14:37 3.1 °F -6.9 °F 1024.3 in NW 14.8 mph 14.8 mph 48 % 0.0 in 429.0 W/m2 CLR
14:42 3.1 °F -6.3 °F 1024.3 in NW 13.0 mph 13.0 mph 50 % 0.0 in 374.0 W/m2 CLR
14:47 3.1 °F -6.3 °F 1024.3 in NNW 14.8 mph 14.8 mph 50 % 0.0 in 207.0 W/m2 CLR
14:52 2.9 °F -6.6 °F 1024.3 in NNW 18.5 mph 18.5 mph 50 % 0.0 in 316.0 W/m2 SCT
14:57 2.9 °F -6.3 °F 1024.3 in NW 11.3 mph 11.3 mph 51 % 0.0 in 374.0 W/m2 FEW
15:02 3.0 °F -6.2 °F 1024.3 in NW 18.5 mph 18.5 mph 51 % 0.0 in 281.0 W/m2 CLR
15:07 3.0 °F -6.2 °F 1024.3 in NW 13.0 mph 13.0 mph 51 % 0.0 in 292.0 W/m2 CLR
15:12 2.9 °F -6.2 °F 1024.3 in WNW 14.8 mph 14.8 mph 51 % 0.0 in 315.0 W/m2 FEW
15:18 3.0 °F -6.2 °F 1024.3 in NW 16.1 mph 16.1 mph 51 % 0.0 in 302.0 W/m2 CLR
15:23 3.0 °F -5.9 °F 1024.3 in NW 13.0 mph 13.0 mph 52 % 0.0 in 229.0 W/m2 CLR
15:28 3.0 °F -5.9 °F 1024.3 in WNW 13.0 mph 13.0 mph 52 % 0.0 in 227.0 W/m2 FEW
15:33 3.1 °F -5.8 °F 1024.3 in WNW 16.1 mph 16.1 mph 52 % 0.0 in 251.0 W/m2 SCT
15:38 3.1 °F -6.1 °F 1024.3 in WNW 11.1 mph 11.1 mph 51 % 0.0 in 250.0 W/m2 FEW
15:43 3.2 °F -6.0 °F 1024.3 in NW 11.3 mph 11.3 mph 51 % 0.0 in 274.0 W/m2 CLR
15:48 3.4 °F -5.8 °F 1024.3 in NW 20.9 mph 20.9 mph 51 % 0.0 in 272.0 W/m2 CLR
15:53 3.4 °F -6.1 °F 1024.3 in WNW 16.7 mph 16.7 mph 50 % 0.0 in 274.0 W/m2 CLR
15:58 3.4 °F -6.0 °F 1024.3 in WNW 14.8 mph 14.8 mph 50 % 0.0 in 264.0 W/m2 CLR
16:03 3.5 °F -5.9 °F 1024.3 in WNW 16.7 mph 16.7 mph 50 % 0.0 in 253.0 W/m2 CLR
16:08 3.4 °F -6.0 °F 1024.3 in WNW 18.5 mph 18.5 mph 50 % 0.0 in 237.0 W/m2 CLR
16:13 3.6 °F -5.9 °F 1024.3 in WNW 16.7 mph 16.7 mph 50 % 0.0 in 223.0 W/m2 CLR
16:18 3.5 °F -6.2 °F 1024.6 in WNW 18.5 mph 18.5 mph 49 % 0.0 in 209.0 W/m2 CLR
16:23 3.5 °F -5.9 °F 1024.3 in WNW 18.5 mph 18.5 mph 50 % 0.0 in 197.0 W/m2 CLR
16:28 3.5 °F -5.9 °F 1024.3 in WNW 11.1 mph 11.1 mph 50 % 0.0 in 179.0 W/m2 CLR
16:33 3.6 °F -6.2 °F 1024.3 in West 16.7 mph 16.7 mph 49 % 0.0 in 165.0 W/m2 CLR
16:38 3.4 °F -6.3 °F 1024.3 in West 16.7 mph 16.7 mph 49 % 0.0 in 151.0 W/m2 CLR
16:43 3.4 °F -6.3 °F 1024.3 in West 20.4 mph 20.4 mph 49 % 0.0 in 137.0 W/m2 CLR
16:48 3.3 °F -6.4 °F 1024.6 in WNW 16.7 mph 16.7 mph 49 % 0.0 in 120.0 W/m2 CLR
16:53 3.2 °F -6.5 °F 1024.3 in WNW 18.5 mph 18.5 mph 49 % 0.0 in 107.0 W/m2 CLR
16:58 3.1 °F -6.6 °F 1024.6 in NW 16.1 mph 16.1 mph 49 % 0.0 in 95.0 W/m2 CLR
17:04 3.1 °F -6.3 °F 1024.6 in WNW 18.5 mph 18.5 mph 50 % 0.0 in 63.0 W/m2 CLR
17:15 3.1 °F -6.4 °F 1024.6 in WNW 8.0 mph 8.4 mph 50 % 0.0 in 53.0 W/m2 OVC
17:20 2.9 °F -6.2 °F 1024.6 in WNW 9.3 mph 10.3 mph 51 % 0.0 in 44.0 W/m2 OVC
17:25 2.8 °F -6.4 °F 1024.9 in WNW 9.3 mph 9.3 mph 51 % 0.0 in 33.0 W/m2 OVC
17:30 2.7 °F -6.5 °F 1024.9 in WNW 9.3 mph 9.3 mph 51 % 0.0 in 26.0 W/m2 OVC
17:35 2.6 °F -6.3 °F 1024.9 in NW 5.6 mph 5.6 mph 52 % 0.0 in 19.0 W/m2 OVC
17:40 2.4 °F -6.4 °F 1024.9 in WNW 5.6 mph   52 % 0.0 in 16.0 W/m2 OVC
17:45 2.3 °F -6.6 °F 1024.9 in WNW 5.6 mph 5.6 mph 52 % 0.0 in 12.0 W/m2 OVC
17:50 2.2 °F -6.4 °F 1024.9 in West 9.3 mph 9.3 mph 53 % 0.0 in 11.0 W/m2 OVC
17:55 2.1 °F -6.5 °F 1024.9 in West 5.6 mph 5.6 mph 53 % 0.0 in 7.0 W/m2 OVC
18:00 2.0 °F -6.3 °F 1024.9 in West 5.6 mph 5.6 mph 54 % 0.0 in 5.0 W/m2 OVC
18:05 1.7 °F -6.4 °F 1025.3 in WNW 5.6 mph 5.6 mph 55 % 0.0 in 0.0 W/m2 CLR
18:10 1.4 °F -6.4 °F 1025.3 in WNW 5.6 mph 5.6 mph 56 % 0.0 in 0.0 W/m2 CLR
18:15 1.1 °F -6.8 °F 1025.3 in WNW 5.6 mph 5.6 mph 56 % 0.0 in 0.0 W/m2 CLR
18:20 0.9 °F -6.6 °F 1025.3 in WNW 5.6 mph 5.6 mph 57 % 0.0 in 0.0 W/m2 CLR
19:00 -0.1 °F -6.9 °F 1026.0 in Calm     60 % 0.0 in 0.0 W/m2 CLR
19:05 -0.3 °F -6.7 °F 1026.0 in Calm     62 % 0.0 in 0.0 W/m2 CLR
19:10 -0.4 °F -6.8 °F 1026.3 in Calm     62 % 0.0 in 0.0 W/m2 CLR
19:15 -0.6 °F -6.7 °F 1026.0 in West 3.7 mph 3.7 mph 63 % 0.0 in 0.0 W/m2 CLR
19:20 -0.6 °F -6.6 °F 1026.3 in West 13.0 mph 13.0 mph 64 % 0.0 in 0.0 W/m2 CLR
19:25 -0.4 °F -6.6 °F 1026.3 in WSW 11.3 mph 11.3 mph 63 % 0.0 in 0.0 W/m2 CLR
19:30 -0.3 °F -6.5 °F 1026.3 in West 9.3 mph 9.3 mph 63 % 0.0 in 0.0 W/m2 CLR
19:35 -0.1 °F -6.3 °F 1026.3 in West 13.0 mph 13.0 mph 63 % 0.0 in 0.0 W/m2 CLR
19:40 0.1 °F -5.9 °F 1026.3 in West 13.0 mph 13.0 mph 64 % 0.0 in 0.0 W/m2 CLR
19:45 0.1 °F -5.9 °F 1026.3 in WNW 9.7 mph 9.7 mph 64 % 0.0 in 0.0 W/m2 CLR
19:50 0.1 °F -5.9 °F 1026.6 in WNW 8.0 mph 8.0 mph 64 % 0.0 in 0.0 W/m2 CLR
19:56 0.0 °F -5.8 °F 1026.6 in WNW 7.4 mph 7.4 mph 65 % 0.0 in 0.0 W/m2 CLR
20:01 0.0 °F -5.8 °F 1026.6 in West 5.6 mph 5.6 mph 65 % 0.0 in 0.0 W/m2 CLR
20:05 -0.2 °F -6.0 °F 1026.6 in West 5.6 mph 5.6 mph 65 % 0.0 in 0.0 W/m2 CLR
20:11 -0.4 °F -6.0 °F 1026.6 in West 3.7 mph   66 % 0.0 in 0.0 W/m2 CLR
20:16 -0.7 °F -5.8 °F 1026.6 in West 7.4 mph 7.4 mph 68 % 0.0 in 0.0 W/m2 CLR
20:21 -0.6 °F -5.6 °F 1026.6 in West 9.3 mph 9.3 mph 69 % 0.0 in 0.0 W/m2 CLR
20:26 -0.4 °F -5.4 °F 1026.6 in WNW 5.6 mph 5.6 mph 69 % 0.0 in 0.0 W/m2 CLR
20:31 -0.5 °F -5.5 °F 1026.6 in West 3.7 mph 3.7 mph 69 % 0.0 in 0.0 W/m2 CLR
20:36 -0.6 °F -5.6 °F 1027.0 in Calm     69 % 0.0 in 0.0 W/m2 CLR
20:41 -0.7 °F -5.7 °F 1026.6 in Calm     69 % 0.0 in 0.0 W/m2 CLR
20:46 -0.9 °F -5.7 °F 1027.0 in Calm     70 % 0.0 in 0.0 W/m2 CLR
20:51 -1.1 °F -5.9 °F 1027.0 in Calm     70 % 0.0 in 0.0 W/m2 CLR
20:56 -1.3 °F -5.9 °F 1027.0 in Calm     71 % 0.0 in 0.0 W/m2 CLR
21:01 -1.4 °F -5.8 °F 1027.0 in Calm   0.8 mph 72 % 0.0 in 0.0 W/m2 CLR
21:06 -1.4 °F -5.7 °F 1027.0 in West 5.6 mph 5.6 mph 73 % 0.0 in 0.0 W/m2 CLR
21:11 -1.3 °F -5.5 °F 1027.0 in West 5.6 mph 5.6 mph 73 % 0.0 in 0.0 W/m2 CLR
21:16 -1.2 °F -5.4 °F 1027.0 in West 5.6 mph 5.6 mph 73 % 0.0 in 0.0 W/m2 CLR
21:21 -1.4 °F -5.8 °F 1027.0 in WSW 3.7 mph 3.7 mph 72 % 0.0 in 0.0 W/m2 CLR
21:26 -1.7 °F -5.9 °F 1027.0 in WSW 5.6 mph 5.6 mph 73 % 0.0 in 0.0 W/m2 CLR
21:31 -1.9 °F -5.9 °F 1027.0 in WSW 9.3 mph 9.3 mph 74 % 0.0 in 0.0 W/m2 CLR
21:36 -1.9 °F -5.8 °F 1027.0 in WSW 7.4 mph 7.4 mph 75 % 0.0 in 0.0 W/m2 CLR
21:41 -2.0 °F -5.8 °F 1027.0 in WSW 6.4 mph 6.4 mph 75 % 0.0 in 0.0 W/m2 CLR
21:46 -2.0 °F -5.8 °F 1027.0 in WSW 9.3 mph 9.3 mph 75 % 0.0 in 0.0 W/m2 CLR
21:51 -2.1 °F -5.9 °F 1027.0 in WSW 9.3 mph 9.3 mph 75 % 0.0 in 0.0 W/m2 CLR
21:56 -2.1 °F -5.7 °F 1027.0 in WSW 11.1 mph 11.1 mph 76 % 0.0 in 0.0 W/m2 CLR
22:01 -2.0 °F -5.7 °F 1027.0 in WSW 9.7 mph 9.7 mph 76 % 0.0 in 0.0 W/m2 CLR
22:06 -2.0 °F -5.7 °F 1027.0 in WSW 9.3 mph 9.3 mph 76 % 0.0 in 0.0 W/m2 CLR
22:11 -2.0 °F -5.7 °F 1027.0 in WSW 11.1 mph 11.1 mph 76 % 0.0 in 0.0 W/m2 CLR
22:16 -2.1 °F -5.8 °F 1027.0 in WSW 11.1 mph 11.1 mph 76 % 0.0 in 0.0 W/m2 CLR
22:21 -2.1 °F -5.8 °F 1027.0 in WSW 9.3 mph 9.3 mph 76 % 0.0 in 0.0 W/m2 CLR
22:26 -2.2 °F -5.8 °F 1027.0 in WSW 11.1 mph 11.1 mph 76 % 0.0 in 0.0 W/m2 CLR
22:32 -2.2 °F -5.8 °F 1027.0 in WSW 5.6 mph 5.6 mph 76 % 0.0 in 0.0 W/m2 CLR
22:37 -2.3 °F -5.9 °F 1027.0 in WSW 1.6 mph 1.6 mph 76 % 0.0 in 0.0 W/m2 CLR
22:42 -2.7 °F -6.3 °F 1027.0 in Calm     76 % 0.0 in 0.0 W/m2 CLR
22:47 -2.9 °F -6.3 °F 1027.0 in Calm     77 % 0.0 in 0.0 W/m2 CLR
22:52 -2.9 °F -6.2 °F 1027.0 in WSW 1.6 mph 1.6 mph 78 % 0.0 in 0.0 W/m2 CLR
22:57 -3.2 °F -6.4 °F 1027.0 in WSW 6.4 mph 6.4 mph 78 % 0.0 in 0.0 W/m2 CLR
23:02 -3.1 °F -6.1 °F 1027.0 in WSW 9.3 mph 9.3 mph 80 % 0.0 in 0.0 W/m2 CLR
23:07 -2.9 °F -5.9 °F 1027.0 in WSW 9.3 mph 9.3 mph 80 % 0.0 in 0.0 W/m2 CLR
23:12 -2.8 °F -5.9 °F 1027.0 in SW 11.1 mph 11.1 mph 79 % 0.0 in 0.0 W/m2 CLR
23:17 -2.6 °F -5.8 °F 1027.0 in WSW 5.6 mph 5.6 mph 79 % 0.0 in 0.0 W/m2 CLR
23:22 -2.6 °F -5.9 °F 1027.0 in Calm     78 % 0.0 in 0.0 W/m2 CLR
23:27 -2.8 °F -6.1 °F 1027.3 in SSW 9.3 mph 9.3 mph 78 % 0.0 in 0.0 W/m2 CLR
23:32 -2.6 °F -5.8 °F 1027.3 in SW 11.1 mph 11.1 mph 79 % 0.0 in 0.0 W/m2 CLR
23:37 -2.5 °F -5.8 °F 1027.3 in WSW 9.7 mph 9.7 mph 78 % 0.0 in 0.0 W/m2 CLR
23:42 -2.3 °F -5.6 °F 1027.3 in WSW 8.0 mph 8.0 mph 78 % 0.0 in 0.0 W/m2 CLR
23:47 -2.3 °F -5.8 °F 1027.0 in WSW 9.3 mph 9.3 mph 77 % 0.0 in 0.0 W/m2 CLR
23:52 -2.2 °F -5.7 °F 1027.0 in WSW 9.3 mph 9.3 mph 77 % 0.0 in 0.0 W/m2 CLR
23:57 -2.1 °F -5.6 °F 1027.3 in WSW 8.0 mph 8.0 mph 77 % 0.0 in 0.0 W/m2 CLR
Lo Temps de Massalio
Compliments of Weather Underground - 1.25 mb